Temp     Hi    Low   Out    Dew  Wind  Wind   Wind    Hi    Hi   Wind   Heat    THW   THSW                Rain  Solar   Solar Hi Solar   UV    UV    Hi     Heat    Cool    In     In    In     In           Wind  Wind    ISS   Arc.
  Date    Time     Out   Temp   Temp   Hum    Pt. Speed   Dir    Run Speed   Dir  Chill  Index  Index  Index   Bar    Rain  Rate   Rad.  Energy    Rad.  Index  Dose   UV     D-D     D-D    Temp   Hum    Dew   Heat     ET   Samp   Tx   Recept  Int.
---------------------------------------------------------------------------------------------------------------------------------------------------------------------------------------------------------------------------------------------------------
11/22/17 12:30a   57.5   57.7   52.5    40   33.3   1.0    SE   0.50   5.0    SE   57.5   55.0   55.0   50.9  30.265  0.00  0.00     0     0.00      0     0.0  0.00   0.0   0.156   0.000   72.8    40   47.1   71.4   0.000   678    2    100.0   30 
11/22/17  1:00a   55.6   58.3   55.6    43   33.4   1.0    SE   0.50   5.0    SE   55.6   53.3   53.3   49.2  30.263  0.00  0.00     0     0.00      0     0.0  0.00   0.0   0.196   0.000   72.3    40   46.6   70.6   0.002   673    2    100.0   30 
11/22/17  1:30a   53.6   56.1   53.6    45   32.8   2.0    SE   1.00   7.0    SE   53.6   51.7   51.7   47.5  30.262  0.00  0.00     0     0.00      0     0.0  0.00   0.0   0.238   0.000   71.9    40   46.3   69.9   0.000   685    2    100.0   30 
11/22/17  2:00a   54.4   55.5   52.6    45   33.5   2.0    SE   1.00   6.0    SE   54.4   52.4   52.4   48.3  30.257  0.00  0.00     0     0.00      0     0.0  0.00   0.0   0.221   0.000   71.8    39   45.5   69.7   0.002   675    2    100.0   30 
11/22/17  2:30a   55.6   55.6   54.4    43   33.4   0.0    SE   0.00   4.0    SE   55.6   53.3   53.3   49.2  30.248  0.00  0.00     0     0.00      0     0.0  0.00   0.0   0.196   0.000   71.4    39   45.1   69.1   0.000   680    2    100.0   30 
11/22/17  3:00a   54.2   56.1   54.2    44   32.7   0.0    SE   0.00   4.0    SE   54.2   52.1   52.1   47.9  30.242  0.00  0.00     0     0.00      0     0.0  0.00   0.0   0.225   0.000   71.2    39   45.0   68.8   0.002   685    2    100.0   30 
11/22/17  3:30a   54.0   56.1   52.7    44   32.6   3.0    SE   1.50   6.0    SE   54.0   52.0   52.0   47.8  30.240  0.00  0.00     0     0.00      0     0.0  0.00   0.0   0.229   0.000   71.2    39   45.0   68.8   0.000   551    2     82.6   30 
11/22/17  4:00a   52.6   54.8   52.6    46   32.4   2.0    SE   1.00   4.0    SE   52.6   50.9   50.9   46.7  30.243  0.00  0.00     0     0.00      0     0.0  0.00   0.0   0.258   0.000   70.7    39   44.5   68.1   0.002   680    2    100.0   30 
11/22/17  4:30a   55.1   55.2   52.6    42   32.4   1.0    SE   0.50   4.0    SE   55.1   52.9   52.9   48.7  30.245  0.00  0.00     0     0.00      0     0.0  0.00   0.0   0.206   0.000   70.6    39   44.4   68.0   0.000   680    2    100.0   30 
11/22/17  5:00a   53.9   55.0   52.7    44   32.5   2.0    SE   1.00   6.0    SE   53.9   51.9   51.9   47.7  30.243  0.00  0.00     0     0.00      0     0.0  0.00   0.0   0.231   0.000   70.4    39   44.3   67.7   0.002   673    2    100.0   30 
11/22/17  5:30a   55.1   55.5   54.0    42   32.4   0.0    SE   0.00   5.0    SE   55.1   52.9   52.9   48.7  30.242  0.00  0.00     0     0.00      0     0.0  0.00   0.0   0.206   0.000   70.1    39   44.0   67.3   0.000   682    2    100.0   30 
11/22/17  6:00a   54.2   55.3   53.9    44   32.7   0.0    SE   0.00   4.0    SE   54.2   52.1   52.1   47.9  30.247  0.00  0.00     0     0.00      0     0.0  0.00   0.0   0.225   0.000   69.9    39   43.8   67.1   0.002   685    2    100.0   30 
11/22/17  6:30a   55.6   55.6   54.2    42   32.8   0.0    SE   0.00   3.0    SE   55.6   53.3   53.3   49.1  30.250  0.00  0.00     0     0.00      0     0.0  0.00   0.0   0.196   0.000   69.7    39   43.6   67.0   0.000   668    2    100.0   30 
11/22/17  7:00a   54.6   56.0   54.3    44   33.1   0.0    SE   0.00   4.0    SE   54.6   52.5   52.5   48.5  30.264  0.00  0.00     6     0.26     12     0.0  0.00   0.0   0.217   0.000   69.6    39   43.5   66.9   0.001   685    2    100.0   30 
11/22/17  7:30a   55.5   55.5   53.9    44   33.9   1.0    SE   0.50   5.0    SE   55.5   53.3   53.3   49.5  30.272  0.00  0.00    16     0.69     19     0.0  0.00   0.0   0.198   0.000   69.7    39   43.6   67.0   0.000   683    2    100.0   30 
11/22/17  8:00a   57.7   57.7   55.5    42   34.7   0.0    SE   0.00   3.0    SE   57.7   55.3   55.3   53.2  30.276  0.00  0.00    21     0.90     23     0.0  0.00   0.0   0.152   0.000   69.9    39   43.8   67.1   0.001   671    2    100.0   30 
11/22/17  8:30a   65.0   65.0   57.7    34   35.9   1.0    SE   0.50   8.0    SE   65.0   61.7   61.7   61.0  30.270  0.00  0.00    53     2.28    204     0.0  0.00   0.7   0.000   0.000   70.6    40   45.1   68.1   0.000   677    2    100.0   30 
11/22/17  9:00a   69.1   69.1   65.0    30   36.3   7.0     E   3.50  14.0     E   69.1   65.5   65.5   68.2  30.260  0.00  0.00   154     6.62    302     0.1  0.02   1.1   0.000   0.085   71.6    40   46.0   69.5   0.005   682    2    100.0   30 
11/22/17  9:30a   71.4   71.4   69.1    27   35.7   8.0     E   4.00  19.0   ESE   70.9   68.0   67.5   72.0  30.259  0.00  0.00   238    10.24    420     0.9  0.14   1.3   0.000   0.133   72.3    39   45.9   70.5   0.000   678    2    100.0   30 
11/22/17 10:00a   73.2   73.2   71.3    26   36.2   9.0   ESE   4.50  19.0   ESE   71.8   70.6   69.2   76.5  30.260  0.00  0.00   429    18.45    510     1.4  0.22   1.9   0.000   0.171   72.8    38   45.7   71.2   0.014   679    2    100.0   30 
11/22/17 10:30a   74.3   74.3   73.2    25   36.2  10.0    SE   5.00  19.0   ESE   72.3   72.1   70.1   77.2  30.253  0.00  0.00   451    19.40    554     1.8  0.29   2.1   0.000   0.194   73.1    38   46.0   71.6   0.000   686    2    100.0   30 
11/22/17 11:00a   75.1   75.1   74.3    25   36.9  12.0    SE   6.00  23.0   ESE   72.3   73.0   70.2   77.2  30.239  0.00  0.00   557    23.95    589     2.4  0.39   2.7   0.000   0.210   73.3    38   46.2   71.9   0.020   670    2    100.0   30 
11/22/17 11:30a   75.9   75.9   75.1    24   36.5  11.0    SE   5.50  19.0     E   73.6   74.1   71.8   78.7  30.226  0.00  0.00   598    25.72    605     2.9  0.47   3.0   0.000   0.227   73.5    37   45.6   72.1   0.000   684    2    100.0   30 
11/22/17 12:00p   76.4   76.5   75.8    24   36.9  11.0    SE   5.50  24.0   ESE   74.1   74.8   72.5   79.4  30.216  0.00  0.00   607    26.10    608     2.9  0.47   3.0   0.000   0.238   73.6    35   44.2   72.1   0.023   685    2    100.0   30 
11/22/17 12:30p   76.7   76.9   76.3    24   37.2  11.0    SE   5.50  24.0   ESE   74.4   75.2   72.9   80.0  30.209  0.00  0.00   600    25.80    606     2.7  0.43   2.8   0.000   0.244   74.0    33   43.1   72.5   0.000   672    1     98.2   30 
11/22/17  1:00p   76.9   77.1   76.5    24   37.3  12.0    SE   6.00  24.0   ESE   74.3   75.5   72.9   79.9  30.191  0.00  0.00   578    24.86    592     2.3  0.37   2.5   0.000   0.248   74.5    32   42.7   73.0   0.023   685    1    100.0   30 
11/22/17  1:30p   76.6   77.0   76.4    25   38.1  11.0     E   5.50  21.0   ESE   74.3   75.1   72.8   80.0  30.183  0.00  0.00   540    23.22    561     1.9  0.31   2.1   0.000   0.242   74.9    31   42.2   73.3   0.000   679    2    100.0   30 
11/22/17  2:00p   77.4   77.5   76.6    24   37.8   7.0   ESE   3.50  18.0     E   77.4   75.9   75.9   84.1  30.172  0.00  0.00   488    20.99    515     1.3  0.21   1.6   0.000   0.258   75.2    31   42.5   73.6   0.020   675    2    100.0   30 
11/22/17  2:30p   76.4   77.4   76.4    24   36.9   7.0    SE   3.50  17.0    SE   76.4   74.8   74.8   82.6  30.170  0.00  0.00   423    18.19    457     0.6  0.10   0.9   0.000   0.238   75.7    28   40.3   74.0   0.000   685    2    100.0   30 
11/22/17  3:00p   76.0   76.5   76.0    25   37.6   5.0   ESE   2.50  15.0     E   76.0   74.3   74.3   81.5  30.170  0.00  0.00   347    14.92    385     0.0  0.00   0.0   0.000   0.229   76.3    28   40.8   74.8   0.014   675    2    100.0   30 
11/22/17  3:30p   75.5   76.0   75.4    25   37.2   5.0   ESE   2.50  14.0     E   75.5   73.6   73.6   79.3  30.162  0.00  0.00   256    11.01    304     0.0  0.00   0.0   0.000   0.219   76.6    28   41.0   75.2   0.000   679    2    100.0   30 
11/22/17  4:00p   74.4   75.5   74.4    26   37.3   3.0   ESE   1.50  13.0   ESE   74.4   72.3   72.3   75.0  30.166  0.00  0.00   146     6.28    200     0.0  0.00   0.0   0.000   0.196   76.3    28   40.8   74.8   0.008   683    2    100.0   30 
11/22/17  4:30p   70.9   74.5   70.9    28   36.1   1.0   ESE   0.50   9.0   ESE   70.9   67.4   67.4   65.7  30.167  0.00  0.00    26     1.12     91     0.0  0.00   0.0   0.000   0.123   76.1    30   42.4   74.6   0.000   671    2    100.0   30 
11/22/17  5:00p   66.8   70.9   66.8    32   36.0   0.0   ---   0.00   0.0   ---   66.8   63.4   63.4   59.6  30.168  0.00  0.00     2     0.09      9     0.0  0.00   0.0   0.000   0.038   75.9    32   43.9   74.5   0.001   685    2    100.0   30 
11/22/17  5:30p   63.8   66.7   63.8    35   35.6   0.0   ---   0.00   0.0   ---   63.8   60.6   60.6   56.7  30.172  0.00  0.00     0     0.00      0     0.0  0.00   0.0   0.025   0.000   76.1    33   44.9   74.8   0.000   684    2    100.0   30 
11/22/17  6:00p   64.7   65.4   62.8    33   34.9   0.0   ---   0.00   0.0   ---   64.7   61.3   61.3   57.4  30.183  0.00  0.00     0     0.00      0     0.0  0.00   0.0   0.006   0.000   76.3    34   45.9   75.1   0.002   670    2    100.0   30 
11/22/17  6:30p   63.5   64.7   62.5    35   35.3   0.0   ---   0.00   0.0   ---   63.5   60.3   60.3   56.4  30.193  0.00  0.00     0     0.00      0     0.0  0.00   0.0   0.031   0.000   76.6    35   46.9   75.5   0.000   683    2    100.0   30 
11/22/17  7:00p   63.5   65.9   63.2    35   35.3   0.0   ESE   0.00   3.0   ESE   63.5   60.3   60.3   56.4  30.198  0.00  0.00     0     0.00      0     0.0  0.00   0.0   0.031   0.000   76.4    35   46.7   75.3   0.002   680    2    100.0   30 
11/22/17  7:30p   62.7   63.9   62.7    35   34.6   0.0   ---   0.00   0.0   ---   62.7   59.5   59.5   55.6  30.199  0.00  0.00     0     0.00      0     0.0  0.00   0.0   0.048   0.000   76.4    35   46.7   75.3   0.000   675    2    100.0   30 
11/22/17  8:00p   60.5   62.7   60.3    38   34.7   0.0   ESE   0.00   3.0   ESE   60.5   57.6   57.6   53.7  30.202  0.00  0.00     0     0.00      0     0.0  0.00   0.0   0.094   0.000   76.4    35   46.7   75.3   0.002   682    2    100.0   30 
11/22/17  8:30p   60.1   60.4   59.1    38   34.4   1.0   ESE   0.50   3.0   ESE   60.1   57.2   57.2   53.3  30.204  0.00  0.00     0     0.00      0     0.0  0.00   0.0   0.102   0.000   76.4    37   48.2   75.4   0.000   679    2    100.0   30 
11/22/17  9:00p   59.6   60.1   59.4    39   34.6   0.0   ESE   0.00   3.0   ESE   59.6   56.8   56.8   52.9  30.208  0.00  0.00     0     0.00      0     0.0  0.00   0.0   0.113   0.000   76.3    37   48.1   75.3   0.002   676    2    100.0   30 
11/22/17  9:30p   57.3   59.8   57.3    42   34.4   0.0   ESE   0.00   3.0   ESE   57.3   54.9   54.9   51.0  30.218  0.00  0.00     0     0.00      0     0.0  0.00   0.0   0.160   0.000   76.3    38   48.8   75.3   0.000   684    2    100.0   30 
11/22/17 10:00p   55.8   57.2   55.6    44   34.2   1.0   ESE   0.50   8.0   ESE   55.8   53.6   53.6   49.7  30.217  0.00  0.00     0     0.00      0     0.0  0.00   0.0   0.192   0.000   76.4    37   48.2   75.4   0.002   677    2    100.0   30 
11/22/17 10:30p   56.3   56.9   55.8    43   34.1   2.0   ESE   1.00   7.0   ESE   56.3   54.0   54.0   50.1  30.212  0.00  0.00     0     0.00      0     0.0  0.00   0.0   0.181   0.000   76.1    37   47.9   75.0   0.000   677    2    100.0   30 
11/22/17 11:00p   56.1   57.4   56.1    44   34.5   1.0   ESE   0.50   4.0   ESE   56.1   53.8   53.8   49.9  30.211  0.00  0.00     0     0.00      0     0.0  0.00   0.0   0.185   0.000   75.6    37   47.5   74.5   0.002   683    2    100.0   30 
11/22/17 11:30p   56.3   56.5   54.4    44   34.6   0.0   ESE   0.00   4.0   ESE   56.3   54.0   54.0   50.1  30.204  0.00  0.00     0     0.00      0     0.0  0.00   0.0   0.181   0.000   75.2    38   47.8   74.2   0.000   673    2    100.0   30 
11/23/17 12:00a   55.4   56.3   55.4    46   34.9   1.0   ESE   0.50   4.0   ESE   55.4   53.3   53.3   49.4  30.198  0.00  0.00     0     0.00      0     0.0  0.00   0.0   0.200   0.000   74.9    38   47.6   73.9   0.002   681    2    100.0   30 
11/23/17 12:30a   56.2   56.6   55.3    44   34.6   1.0   ESE   0.50   5.0   ESE   56.2   53.9   53.9   50.0  30.194  0.00  0.00     0     0.00      0     0.0  0.00   0.0   0.183   0.000   74.3    38   47.0   73.3   0.000   682    2    100.0   30 
11/23/17  1:00a   56.2   56.4   55.1    45   35.1   0.0   ESE   0.00   3.0   ESE   56.2   54.0   54.0   50.1  30.190  0.00  0.00     0     0.00      0     0.0  0.00   0.0   0.183   0.000   74.0    38   46.8   72.9   0.002   671    2    100.0   30 
11/23/17  1:30a   56.8   57.0   56.0    43   34.5   0.0   ESE   0.00   2.0   ESE   56.8   54.5   54.5   50.6  30.185  0.00  0.00     0     0.00      0     0.0  0.00   0.0   0.171   0.000   73.6    38   46.4   72.4   0.000   681    2    100.0   30 
11/23/17  2:00a   52.4   56.8   52.4    49   33.8   1.0   ESE   0.50   5.0   ESE   52.4   50.8   50.8   46.9  30.186  0.00  0.00     0     0.00      0     0.0  0.00   0.0   0.262   0.000   73.3    38   46.2   71.9   0.002   683    2    100.0   30 
11/23/17  2:30a   53.8   53.8   52.0    48   34.6   1.0   ESE   0.50   4.0   ESE   53.8   52.0   52.0   48.1  30.182  0.00  0.00     0     0.00      0     0.0  0.00   0.0   0.233   0.000   73.1    37   45.3   71.5   0.000   671    2    100.0   30 
11/23/17  3:00a   54.0   55.4   52.8    46   33.7   3.0   ESE   1.50   7.0   ESE   54.0   52.1   52.1   48.2  30.178  0.00  0.00     0     0.00      0     0.0  0.00   0.0   0.229   0.000   72.8    37   45.0   71.1   0.002   684    2    100.0   30 
11/23/17  3:30a   50.9   53.9   50.9    50   32.9   4.0   ESE   2.00   8.0   ESE   49.9   49.6   48.6   44.6  30.175  0.00  0.00     0     0.00      0     0.0  0.00   0.0   0.294   0.000   72.4    37   44.6   70.4   0.000   683    2    100.0   30 
11/23/17  4:00a   52.0   52.0   49.1    51   34.4   2.0    SE   1.00   8.0   ESE   52.0   50.6   50.6   46.7  30.172  0.00  0.00     0     0.00      0     0.0  0.00   0.0   0.271   0.000   72.3    37   44.6   70.3   0.002   672    2    100.0   30 
11/23/17  4:30a   49.0   53.4   48.4    54   33.1   3.0    SE   1.50   6.0    SE   48.5   48.0   47.5   43.6  30.170  0.00  0.00     0     0.00      0     0.0  0.00   0.0   0.333   0.000   71.9    37   44.2   69.7   0.000   685    2    100.0   30 
11/23/17  5:00a   47.0   49.0   47.0    58   33.0   4.0   SSE   2.00   9.0   SSE   45.4   46.1   44.5   40.5  30.164  0.00  0.00     0     0.00      0     0.0  0.00   0.0   0.375   0.000   71.8    37   44.1   69.5   0.002   684    2    100.0   30 
11/23/17  5:30a   49.0   50.4   47.0    54   33.1   2.0   SSE   1.00   6.0   SSE   49.0   48.0   48.0   44.1  30.170  0.00  0.00     0     0.00      0     0.0  0.00   0.0   0.333   0.000   71.4    37   43.8   68.9   0.000   670    2    100.0   30 
11/23/17  6:00a   46.2   48.9   46.2    59   32.7   2.0   SSE   1.00   6.0   SSE   46.2   45.4   45.4   41.4  30.180  0.00  0.00     0     0.00      0     0.0  0.00   0.0   0.392   0.000   71.2    37   43.6   68.6   0.002   686    2    100.0   30 
11/23/17  6:30a   45.9   46.2   44.3    60   32.8   0.0   SSE   0.00   2.0   SSE   45.9   45.1   45.1   41.1  30.182  0.00  0.00     0     0.00      0     0.0  0.00   0.0   0.398   0.000   70.9    37   43.3   68.2   0.000   684    2    100.0   30 
11/23/17  7:00a   45.4   46.0   45.2    60   32.3   0.0   SSE   0.00   4.0   SSE   45.4   44.6   44.6   40.8  30.192  0.00  0.00     7     0.30     14     0.0  0.00   0.0   0.408   0.000   70.6    37   43.1   67.8   0.000   667    2    100.0   30 
11/23/17  7:30a   47.0   47.4   45.4    59   33.4   0.0   SSE   0.00   4.0   SSE   47.0   46.2   46.2   42.8  30.197  0.00  0.00    22     0.95     37     0.0  0.00   0.0   0.375   0.000   70.6    37   43.1   67.8   0.000   681    2    100.0   30 
11/23/17  8:00a   50.8   50.8   47.0    54   34.7   0.0   ---   0.00   0.0   ---   50.8   49.7   49.7   48.5  30.194  0.00  0.00    37     1.59     42     0.0  0.00   0.0   0.296   0.000   70.7    37   43.1   68.0   0.001   685    2    100.0   30 
11/23/17  8:30a   56.3   56.3   50.9    46   35.8   0.0   ---   0.00   0.0   ---   56.3   54.2   54.2   53.5  30.191  0.00  0.00    53     2.28    151     0.1  0.02   0.8   0.181   0.000   71.1    38   44.2   68.6   0.000   679    2    100.0   30 
11/23/17  9:00a   63.4   63.4   56.3    39   38.0   0.0   ---   0.00   0.0   ---   63.4   60.6   60.6   63.6  30.184  0.00  0.00   163     7.01    306     0.2  0.03   0.6   0.033   0.000   71.9    39   45.6   69.9   0.003   671    2    100.0   30 
11/23/17  9:30a   67.9   67.9   63.4    33   37.7   0.0   ---   0.00   0.0   ---   67.9   64.7   64.7   70.7  30.182  0.00  0.00   285    12.26    454     0.7  0.11   1.1   0.000   0.060   72.6    39   46.2   71.0   0.000   682    2    100.0   30 
11/23/17 10:00a   70.9   70.9   67.9    31   38.7   0.0   ---   0.00   0.0   ---   70.9   67.7   67.7   75.2  30.172  0.00  0.00   374    16.08    524     1.0  0.16   1.6   0.000   0.123   73.0    38   45.9   71.5   0.008   678    2    100.0   30 
11/23/17 10:30a   74.2   74.2   71.0    27   38.1   0.0   SSE   0.00   5.0   SSE   74.2   72.2   72.2   80.2  30.164  0.00  0.00   427    18.36    548     1.6  0.26   2.1   0.000   0.192   73.3    38   46.2   71.9   0.000   676    2    100.0   30 
11/23/17 11:00a   75.4   75.9   74.2    26   38.1   1.0   SSE   0.50   6.0   SSE   75.4   73.5   73.5   82.1  30.150  0.00  0.00   555    23.87    596     2.5  0.40   2.6   0.000   0.217   73.8    37   45.9   72.6   0.013   684    2    100.0   30 
11/23/17 11:30a   77.6   77.6   75.4    24   37.9   1.0    SE   0.50   5.0    SE   77.6   75.9   75.9   84.1  30.130  0.00  0.00   591    25.42    606     2.6  0.42   2.7   0.000   0.262   74.2    37   46.2   73.1   0.000   674    2    100.0   30 
11/23/17 12:00p   79.1   79.1   77.6    21   35.8   0.0   SSE   0.00   5.0   SSE   79.1   76.3   76.3   84.6  30.116  0.00  0.00   608    26.15    615     2.6  0.42   2.7   0.000   0.294   74.5    36   45.8   73.3   0.016   682    2    100.0   30 
11/23/17 12:30p   77.4   79.1   77.3    22   35.6   6.0   NNE   3.00  13.0     N   77.4   75.8   75.8   84.2  30.102  0.00  0.00   594    25.55    606     2.7  0.43   2.7   0.000   0.258   74.9    35   45.4   73.7   0.000   683    2    100.0   30 
11/23/17  1:00p   78.3   78.3   75.8    23   37.4   9.0   NNW   4.50  15.0     N   77.1   76.2   75.0   82.9  30.094  0.00  0.00   556    23.91    605     2.4  0.39   2.7   0.000   0.277   75.0    34   44.7   73.7   0.020   672    2    100.0   30 
11/23/17  1:30p   74.5   78.8   74.5    25   36.4   9.0   WNW   4.50  20.0   NNW   73.2   72.3   71.0   78.8  30.087  0.00  0.00   533    22.92    570     2.0  0.32   2.3   0.000   0.198   75.2    34   44.9   73.9   0.000   680    2    100.0   30 
11/23/17  2:00p   72.5   74.4   72.4    28   37.5  11.0   NNW   5.50  21.0   NNW   70.0   69.7   67.2   74.0  30.086  0.00  0.00   506    21.76    578     1.5  0.24   1.8   0.000   0.156   75.2    34   44.9   73.9   0.020   680    2    100.0   30 
11/23/17  2:30p   73.8   73.9   72.6    29   39.5   6.0   NNW   3.00  14.0   NNW   73.8   71.9   71.9   80.0  30.082  0.00  0.00   430    18.49    469     0.9  0.14   1.2   0.000   0.183   75.2    34   44.9   73.9   0.000   673    2    100.0   30 
11/23/17  3:00p   70.0   74.0   70.0    34   40.3   7.0   NNW   3.50  12.0   NNW   70.0   66.8   66.8   72.2  30.087  0.00  0.00   254    10.92    399     0.0  0.00   0.5   0.000   0.104   75.4    34   45.1   74.1   0.013   685    2    100.0   30 
11/23/17  3:30p   66.9   69.9   66.9    39   41.1   5.0   NNW   2.50  12.0   NNW   66.9   64.3   64.3   69.4  30.088  0.00  0.00   220     9.46    350     0.0  0.00   0.0   0.000   0.040   75.0    32   43.1   73.5   0.000   673    2    100.0   30 
11/23/17  4:00p   65.2   66.8   65.2    42   41.5   2.0   NNW   1.00   8.0   NNW   65.2   62.8   62.8   64.6  30.093  0.00  0.00   113     4.86    232     0.0  0.00   0.0   0.000   0.004   74.5    33   43.5   73.1   0.006   680    2    100.0   30 
11/23/17  4:30p   64.5   65.3   64.4    41   40.3   0.0   NNW   0.00   6.0   NNW   64.5   61.9   61.9   58.8  30.087  0.00  0.00    42     1.81     72     0.0  0.00   0.0   0.010   0.000   74.3    33   43.3   72.9   0.000   685    2    100.0   30 
11/23/17  5:00p   60.5   64.5   60.5    47   40.2   0.0   ---   0.00   0.0   ---   60.5   58.3   58.3   54.4  30.087  0.00  0.00     6     0.26     19     0.0  0.00   0.0   0.094   0.000   74.5    34   44.3   73.2   0.001   668    2    100.0   30 
11/23/17  5:30p   58.4   60.4   57.8    48   38.8   0.0   ---   0.00   0.0   ---   58.4   56.3   56.3   52.2  30.091  0.00  0.00     0     0.00      0     0.0  0.00   0.0   0.137   0.000   74.7    34   44.5   73.4   0.000   684    2    100.0   30